Create Tblcommutelog Verified Points Advance Search
| # | Trip ID | Id Commuter | Trip Date | Trip Num | Current Lat | Current Lng | Delta Distance | Current Time | Activity | Activity Confidence | Current Speed | |
|---|---|---|---|---|---|---|---|---|---|---|---|---|
| 73181 | 250925_776618_16644147_1800 | 776618 | (not set) | (not set) | 38.88207975822 | -77.113207443726 | 7.2825 | 2025-09-25 18:37:43 | in_vehicle | 100 | 2.18602197645 | |
| 73182 | 250925_784252_16656535_1743 | 784252 | (not set) | (not set) | 39.399374100889 | -77.424522912909 | 44.3912 | 2025-09-25 18:38:05 | in_vehicle | 100 | 0.56773985891441 | |
| 73183 | 250925_758522_16624992_1834 | 758522 | (not set) | (not set) | 38.8763793 | -77.0054331 | 0.157 | 2025-09-25 18:38:22 | walking | 100 | 3.0711597092457 | |
| 73184 | 250925_787384_16655865_1810 | 787384 | (not set) | (not set) | 38.924141692498 | -77.0521729639 | 2.2125 | 2025-09-25 18:38:36 | in_vehicle | 100 | -0.44703925898772 | |
| 73185 | 250925_772317_16639583_1815 | 772317 | (not set) | (not set) | 38.924289497453 | -77.048504986448 | 2.9823 | 2025-09-25 18:39:00 | on_bicycle | 100 | 2.221785117169 | |
| 73186 | 250925_765830_16632736_1751 | 765830 | (not set) | (not set) | 38.923677538328 | -77.206705112564 | 11.4542 | 2025-09-25 18:39:33 | on_foot | 100 | 0.37104258495981 | |
| 73187 | 250925_783320_16651053_1633 | 783320 | (not set) | (not set) | 38.900136222397 | -77.200241804389 | 12.1432 | 2025-09-25 18:39:47 | still | 33 | 1.5422854435076 | |
| 73188 | 250925_754080_16652102_1755 | 754080 | (not set) | (not set) | 38.79260025498 | -77.067958174474 | 9.6149 | 2025-09-25 18:39:51 | in_vehicle | 100 | 5.9590333223064 | |
| 73189 | 250925_785415_16653553_1819 | 785415 | (not set) | (not set) | 39.340966982593 | -76.664004560845 | 4.0067 | 2025-09-25 18:40:23 | in_vehicle | 100 | 4.3631031677202 | |
| 73190 | 250925_765830_16632736_1751 | 765830 | (not set) | (not set) | 38.923079339082 | -77.205837410108 | 11.5169 | 2025-09-25 18:40:38 | on_foot | 100 | 0.54538789596502 | |
| 73191 | 250925_787384_16655865_1810 | 787384 | (not set) | (not set) | 38.941648880165 | -77.061959568866 | 2.2125 | 2025-09-25 18:40:57 | in_vehicle | 100 | -0.44703925898772 | |
| 73192 | 250925_766075_16632980_1804 | 766075 | (not set) | (not set) | 38.885012440602 | -77.223373785644 | 10.4771 | 2025-09-25 18:41:24 | in_vehicle | 100 | 9.4191171868714 | |
| 73193 | 250925_772317_16639583_1815 | 772317 | (not set) | (not set) | 38.930302939784 | -77.045528981634 | 3.5318 | 2025-09-25 18:41:45 | on_bicycle | 100 | 2.4274231763033 | |
| 73194 | 250925_765830_16632736_1751 | 765830 | (not set) | (not set) | 38.922709353529 | -77.204852658871 | 11.5797 | 2025-09-25 18:42:04 | on_foot | 100 | 0.44256886639785 | |
| 73195 | 250925_786552_16654909_1756 | 786552 | (not set) | (not set) | 38.975341479669 | -77.017644599062 | 7.7254 | 2025-09-25 18:42:26 | in_vehicle | 100 | 7.7069568249484 | |
| 73196 | 250925_789018_16657780_1750 | 789018 | (not set) | (not set) | 39.083421963523 | -77.145599278002 | 16.0112 | 2025-09-25 18:42:43 | in_vehicle | 100 | 0 | |
| 73197 | 250925_789018_16657780_1750 | 789018 | (not set) | (not set) | 39.083421693014 | -77.145598036256 | 16.0112 | 2025-09-25 18:43:01 | in_vehicle | 100 | 0 | |
| 73198 | 250925_765830_16632736_1751 | 765830 | (not set) | (not set) | 38.922952658369 | -77.203771165893 | 11.6429 | 2025-09-25 18:43:21 | on_foot | 100 | 0.72420359956011 | |
| 73199 | 250925_766075_16632980_1804 | 766075 | (not set) | (not set) | 38.879659837381 | -77.24599386362 | 11.7626 | 2025-09-25 18:43:43 | in_vehicle | 100 | 14.524305524511 | |
| 73200 | 250925_783320_16651053_1633 | 783320 | (not set) | (not set) | 38.910994337064 | -77.178934586371 | 13.586 | 2025-09-25 18:44:03 | in_vehicle | 100 | 4.7162641823205 |